sensor_id;sensor_type;location;lat;lon;timestamp;P1;durP1;ratioP1;P2;durP2;ratioP2
75837;SDS011;64480;52.040;113.502;2023-12-20T00:01:41;10.00;;;4.65;;
75837;SDS011;64480;52.040;113.502;2023-12-20T00:07:48;6.93;;;6.45;;
75837;SDS011;64480;52.040;113.502;2023-12-20T00:10:52;21.77;;;13.30;;
75837;SDS011;64480;52.040;113.502;2023-12-20T00:13:55;25.73;;;17.58;;
75837;SDS011;64480;52.040;113.502;2023-12-20T00:17:00;49.33;;;34.83;;
75837;SDS011;64480;52.040;113.502;2023-12-20T00:20:04;44.25;;;28.58;;
75837;SDS011;64480;52.040;113.502;2023-12-20T00:23:09;37.53;;;23.55;;
75837;SDS011;64480;52.040;113.502;2023-12-20T00:26:13;26.95;;;23.38;;
75837;SDS011;64480;52.040;113.502;2023-12-20T00:29:17;67.40;;;33.80;;
75837;SDS011;64480;52.040;113.502;2023-12-20T00:32:20;60.45;;;38.53;;
75837;SDS011;64480;52.040;113.502;2023-12-20T00:38:27;78.45;;;45.53;;
75837;SDS011;64480;52.040;113.502;2023-12-20T00:41:30;69.05;;;39.60;;
75837;SDS011;64480;52.040;113.502;2023-12-20T00:44:34;83.13;;;45.58;;
75837;SDS011;64480;52.040;113.502;2023-12-20T00:47:38;97.63;;;47.67;;
75837;SDS011;64480;52.040;113.502;2023-12-20T00:50:44;82.78;;;37.22;;
75837;SDS011;64480;52.040;113.502;2023-12-20T00:53:49;46.08;;;33.70;;
75837;SDS011;64480;52.040;113.502;2023-12-20T00:56:53;36.20;;;28.63;;
75837;SDS011;64480;52.040;113.502;2023-12-20T01:03:00;71.32;;;45.80;;
75837;SDS011;64480;52.040;113.502;2023-12-20T01:06:04;78.57;;;42.40;;
75837;SDS011;64480;52.040;113.502;2023-12-20T01:09:08;52.92;;;34.42;;
75837;SDS011;64480;52.040;113.502;2023-12-20T01:12:12;84.03;;;34.75;;
75837;SDS011;64480;52.040;113.502;2023-12-20T01:15:16;66.13;;;37.50;;
75837;SDS011;64480;52.040;113.502;2023-12-20T01:18:19;38.03;;;28.30;;
75837;SDS011;64480;52.040;113.502;2023-12-20T01:24:27;19.42;;;14.23;;
75837;SDS011;64480;52.040;113.502;2023-12-20T01:30:34;36.17;;;13.60;;
75837;SDS011;64480;52.040;113.502;2023-12-20T01:33:38;18.08;;;16.05;;
75837;SDS011;64480;52.040;113.502;2023-12-20T01:36:42;26.63;;;23.67;;
75837;SDS011;64480;52.040;113.502;2023-12-20T01:39:46;28.23;;;13.80;;
75837;SDS011;64480;52.040;113.502;2023-12-20T01:43:02;12.52;;;11.32;;
75837;SDS011;64480;52.040;113.502;2023-12-20T01:46:10;58.03;;;31.27;;
75837;SDS011;64480;52.040;113.502;2023-12-20T01:49:15;42.80;;;28.35;;
75837;SDS011;64480;52.040;113.502;2023-12-20T01:52:20;36.55;;;29.05;;
75837;SDS011;64480;52.040;113.502;2023-12-20T01:55:24;33.10;;;15.95;;
75837;SDS011;64480;52.040;113.502;2023-12-20T01:58:31;26.17;;;20.25;;
75837;SDS011;64480;52.040;113.502;2023-12-20T02:01:34;33.35;;;23.75;;
75837;SDS011;64480;52.040;113.502;2023-12-20T02:04:38;33.05;;;18.27;;
75837;SDS011;64480;52.040;113.502;2023-12-20T02:07:42;28.08;;;21.80;;
75837;SDS011;64480;52.040;113.502;2023-12-20T02:10:46;31.63;;;27.63;;
75837;SDS011;64480;52.040;113.502;2023-12-20T02:13:50;20.20;;;17.98;;
75837;SDS011;64480;52.040;113.502;2023-12-20T02:16:54;32.13;;;19.50;;
75837;SDS011;64480;52.040;113.502;2023-12-20T02:23:00;16.17;;;13.60;;
75837;SDS011;64480;52.040;113.502;2023-12-20T02:26:03;11.07;;;8.95;;
75837;SDS011;64480;52.040;113.502;2023-12-20T02:29:10;49.78;;;27.48;;
75837;SDS011;64480;52.040;113.502;2023-12-20T02:32:14;26.08;;;12.65;;
75837;SDS011;64480;52.040;113.502;2023-12-20T02:35:17;23.27;;;15.52;;
75837;SDS011;64480;52.040;113.502;2023-12-20T02:38:21;30.08;;;20.75;;
75837;SDS011;64480;52.040;113.502;2023-12-20T02:41:25;18.50;;;14.23;;
75837;SDS011;64480;52.040;113.502;2023-12-20T02:44:28;18.63;;;14.50;;
75837;SDS011;64480;52.040;113.502;2023-12-20T02:47:32;16.67;;;14.13;;
75837;SDS011;64480;52.040;113.502;2023-12-20T02:50:36;19.02;;;11.10;;
75837;SDS011;64480;52.040;113.502;2023-12-20T02:53:39;4.15;;;3.72;;
75837;SDS011;64480;52.040;113.502;2023-12-20T02:59:45;16.83;;;12.32;;
75837;SDS011;64480;52.040;113.502;2023-12-20T03:02:48;3.88;;;3.22;;
75837;SDS011;64480;52.040;113.502;2023-12-20T03:05:52;22.50;;;13.32;;
75837;SDS011;64480;52.040;113.502;2023-12-20T03:08:56;38.95;;;23.40;;
75837;SDS011;64480;52.040;113.502;2023-12-20T03:15:03;8.18;;;7.47;;
75837;SDS011;64480;52.040;113.502;2023-12-20T03:18:07;22.75;;;9.68;;
75837;SDS011;64480;52.040;113.502;2023-12-20T03:21:10;17.98;;;10.93;;
75837;SDS011;64480;52.040;113.502;2023-12-20T03:24:16;28.40;;;17.95;;
75837;SDS011;64480;52.040;113.502;2023-12-20T03:30:22;35.65;;;13.63;;
75837;SDS011;64480;52.040;113.502;2023-12-20T03:33:26;12.23;;;11.07;;
75837;SDS011;64480;52.040;113.502;2023-12-20T03:36:30;42.65;;;23.30;;
75837;SDS011;64480;52.040;113.502;2023-12-20T03:39:34;18.00;;;13.55;;
75837;SDS011;64480;52.040;113.502;2023-12-20T03:42:38;25.27;;;11.73;;
75837;SDS011;64480;52.040;113.502;2023-12-20T03:45:42;13.98;;;6.80;;
75837;SDS011;64480;52.040;113.502;2023-12-20T03:48:45;33.60;;;21.70;;
75837;SDS011;64480;52.040;113.502;2023-12-20T03:51:49;27.00;;;12.38;;
75837;SDS011;64480;52.040;113.502;2023-12-20T03:54:52;20.65;;;11.23;;
75837;SDS011;64480;52.040;113.502;2023-12-20T03:57:59;32.25;;;14.90;;
75837;SDS011;64480;52.040;113.502;2023-12-20T04:01:03;15.88;;;8.20;;
75837;SDS011;64480;52.040;113.502;2023-12-20T04:04:07;8.15;;;7.32;;
75837;SDS011;64480;52.040;113.502;2023-12-20T04:07:11;20.95;;;9.30;;
75837;SDS011;64480;52.040;113.502;2023-12-20T04:10:14;12.07;;;8.25;;
75837;SDS011;64480;52.040;113.502;2023-12-20T04:13:17;7.60;;;6.85;;
75837;SDS011;64480;52.040;113.502;2023-12-20T04:16:21;5.30;;;4.90;;
75837;SDS011;64480;52.040;113.502;2023-12-20T04:19:25;2.78;;;2.60;;
75837;SDS011;64480;52.040;113.502;2023-12-20T04:22:29;9.07;;;7.03;;
75837;SDS011;64480;52.040;113.502;2023-12-20T04:25:32;3.30;;;3.05;;
75837;SDS011;64480;52.040;113.502;2023-12-20T04:28:36;3.00;;;2.80;;
75837;SDS011;64480;52.040;113.502;2023-12-20T04:31:40;2.90;;;2.08;;
75837;SDS011;64480;52.040;113.502;2023-12-20T04:34:44;5.65;;;5.35;;
75837;SDS011;64480;52.040;113.502;2023-12-20T04:37:47;7.00;;;6.53;;
75837;SDS011;64480;52.040;113.502;2023-12-20T04:40:52;5.75;;;5.45;;
75837;SDS011;64480;52.040;113.502;2023-12-20T04:43:55;11.63;;;7.70;;
75837;SDS011;64480;52.040;113.502;2023-12-20T04:46:58;7.90;;;5.50;;
75837;SDS011;64480;52.040;113.502;2023-12-20T04:50:02;10.57;;;6.35;;
75837;SDS011;64480;52.040;113.502;2023-12-20T04:53:07;8.57;;;5.78;;
75837;SDS011;64480;52.040;113.502;2023-12-20T04:56:10;24.60;;;10.80;;
75837;SDS011;64480;52.040;113.502;2023-12-20T04:59:15;12.25;;;8.70;;
75837;SDS011;64480;52.040;113.502;2023-12-20T05:02:18;12.48;;;8.45;;
75837;SDS011;64480;52.040;113.502;2023-12-20T05:05:21;9.52;;;4.95;;
75837;SDS011;64480;52.040;113.502;2023-12-20T05:08:25;12.27;;;9.85;;
75837;SDS011;64480;52.040;113.502;2023-12-20T05:11:28;17.80;;;13.68;;
75837;SDS011;64480;52.040;113.502;2023-12-20T05:14:32;9.90;;;6.75;;
75837;SDS011;64480;52.040;113.502;2023-12-20T05:17:35;11.68;;;10.20;;
75837;SDS011;64480;52.040;113.502;2023-12-20T05:20:39;4.30;;;3.95;;
75837;SDS011;64480;52.040;113.502;2023-12-20T05:23:43;4.07;;;3.78;;
75837;SDS011;64480;52.040;113.502;2023-12-20T05:26:47;1.85;;;1.73;;
75837;SDS011;64480;52.040;113.502;2023-12-20T05:29:55;3.97;;;3.78;;
75837;SDS011;64480;52.040;113.502;2023-12-20T05:33:00;5.05;;;4.57;;
75837;SDS011;64480;52.040;113.502;2023-12-20T05:36:04;7.15;;;4.38;;
75837;SDS011;64480;52.040;113.502;2023-12-20T05:39:07;8.88;;;5.68;;
75837;SDS011;64480;52.040;113.502;2023-12-20T05:42:10;4.38;;;2.40;;
75837;SDS011;64480;52.040;113.502;2023-12-20T05:45:17;7.43;;;3.25;;
75837;SDS011;64480;52.040;113.502;2023-12-20T05:48:20;11.88;;;10.95;;
75837;SDS011;64480;52.040;113.502;2023-12-20T05:51:24;6.47;;;5.13;;
75837;SDS011;64480;52.040;113.502;2023-12-20T05:57:30;3.63;;;3.38;;
75837;SDS011;64480;52.040;113.502;2023-12-20T06:00:34;4.75;;;4.45;;
75837;SDS011;64480;52.040;113.502;2023-12-20T06:03:40;3.97;;;3.55;;
75837;SDS011;64480;52.040;113.502;2023-12-20T06:06:44;3.92;;;3.50;;
75837;SDS011;64480;52.040;113.502;2023-12-20T06:09:48;12.65;;;9.00;;
75837;SDS011;64480;52.040;113.502;2023-12-20T06:12:52;4.55;;;4.25;;
75837;SDS011;64480;52.040;113.502;2023-12-20T06:15:56;3.03;;;2.85;;
75837;SDS011;64480;52.040;113.502;2023-12-20T06:18:59;9.57;;;4.85;;
75837;SDS011;64480;52.040;113.502;2023-12-20T06:22:03;3.95;;;3.70;;
75837;SDS011;64480;52.040;113.502;2023-12-20T06:25:09;12.25;;;11.15;;
75837;SDS011;64480;52.040;113.502;2023-12-20T06:28:13;2.05;;;1.90;;
75837;SDS011;64480;52.040;113.502;2023-12-20T06:31:17;4.47;;;4.05;;
75837;SDS011;64480;52.040;113.502;2023-12-20T06:34:21;7.57;;;6.88;;
75837;SDS011;64480;52.040;113.502;2023-12-20T06:37:25;17.58;;;6.93;;
75837;SDS011;64480;52.040;113.502;2023-12-20T06:40:32;18.48;;;8.18;;
75837;SDS011;64480;52.040;113.502;2023-12-20T06:43:35;7.72;;;7.00;;
75837;SDS011;64480;52.040;113.502;2023-12-20T06:46:51;6.93;;;5.18;;
75837;SDS011;64480;52.040;113.502;2023-12-20T06:52:57;1.90;;;1.80;;
75837;SDS011;64480;52.040;113.502;2023-12-20T06:56:01;14.88;;;8.68;;
75837;SDS011;64480;52.040;113.502;2023-12-20T06:59:05;11.98;;;3.03;;
75837;SDS011;64480;52.040;113.502;2023-12-20T07:02:09;22.00;;;9.48;;
75837;SDS011;64480;52.040;113.502;2023-12-20T07:05:17;4.53;;;2.47;;
75837;SDS011;64480;52.040;113.502;2023-12-20T07:08:25;11.98;;;8.52;;
75837;SDS011;64480;52.040;113.502;2023-12-20T07:11:28;20.42;;;11.60;;
75837;SDS011;64480;52.040;113.502;2023-12-20T07:14:31;6.38;;;2.28;;
75837;SDS011;64480;52.040;113.502;2023-12-20T07:17:36;4.15;;;3.70;;
75837;SDS011;64480;52.040;113.502;2023-12-20T07:20:40;3.10;;;2.90;;
75837;SDS011;64480;52.040;113.502;2023-12-20T07:23:43;9.90;;;8.95;;
75837;SDS011;64480;52.040;113.502;2023-12-20T07:26:48;9.82;;;9.15;;
75837;SDS011;64480;52.040;113.502;2023-12-20T07:29:51;5.18;;;4.85;;
75837;SDS011;64480;52.040;113.502;2023-12-20T07:32:55;4.30;;;3.92;;
75837;SDS011;64480;52.040;113.502;2023-12-20T07:35:59;3.67;;;1.90;;
75837;SDS011;64480;52.040;113.502;2023-12-20T07:39:03;4.82;;;4.40;;
75837;SDS011;64480;52.040;113.502;2023-12-20T07:42:07;6.93;;;4.38;;
75837;SDS011;64480;52.040;113.502;2023-12-20T07:45:12;9.70;;;8.80;;
75837;SDS011;64480;52.040;113.502;2023-12-20T07:48:15;6.95;;;6.45;;
75837;SDS011;64480;52.040;113.502;2023-12-20T07:51:19;11.50;;;6.43;;
75837;SDS011;64480;52.040;113.502;2023-12-20T07:54:23;2.38;;;2.28;;
75837;SDS011;64480;52.040;113.502;2023-12-20T07:57:28;14.88;;;8.63;;
75837;SDS011;64480;52.040;113.502;2023-12-20T08:00:33;8.38;;;7.50;;
75837;SDS011;64480;52.040;113.502;2023-12-20T08:03:37;7.22;;;6.78;;
75837;SDS011;64480;52.040;113.502;2023-12-20T08:06:41;9.82;;;8.82;;
75837;SDS011;64480;52.040;113.502;2023-12-20T08:09:46;11.45;;;7.03;;
75837;SDS011;64480;52.040;113.502;2023-12-20T08:12:50;23.10;;;20.60;;
75837;SDS011;64480;52.040;113.502;2023-12-20T08:18:57;13.52;;;12.50;;
75837;SDS011;64480;52.040;113.502;2023-12-20T08:22:01;21.65;;;15.27;;
75837;SDS011;64480;52.040;113.502;2023-12-20T08:25:05;10.82;;;10.00;;
75837;SDS011;64480;52.040;113.502;2023-12-20T08:28:09;13.63;;;11.02;;
75837;SDS011;64480;52.040;113.502;2023-12-20T08:31:15;12.38;;;10.80;;
75837;SDS011;64480;52.040;113.502;2023-12-20T08:34:20;47.20;;;17.60;;
75837;SDS011;64480;52.040;113.502;2023-12-20T08:37:24;13.75;;;12.82;;
75837;SDS011;64480;52.040;113.502;2023-12-20T08:40:28;12.05;;;11.00;;
75837;SDS011;64480;52.040;113.502;2023-12-20T08:43:32;22.05;;;16.10;;
75837;SDS011;64480;52.040;113.502;2023-12-20T08:46:38;38.55;;;34.40;;
75837;SDS011;64480;52.040;113.502;2023-12-20T08:49:41;16.52;;;14.70;;
75837;SDS011;64480;52.040;113.502;2023-12-20T08:52:45;13.93;;;12.50;;
75837;SDS011;64480;52.040;113.502;2023-12-20T08:55:48;19.00;;;13.77;;
75837;SDS011;64480;52.040;113.502;2023-12-20T08:58:52;20.70;;;18.33;;
75837;SDS011;64480;52.040;113.502;2023-12-20T09:01:55;26.35;;;23.70;;
75837;SDS011;64480;52.040;113.502;2023-12-20T09:05:00;11.70;;;10.57;;
75837;SDS011;64480;52.040;113.502;2023-12-20T09:08:06;20.80;;;15.30;;
75837;SDS011;64480;52.040;113.502;2023-12-20T09:11:12;15.95;;;10.02;;
75837;SDS011;64480;52.040;113.502;2023-12-20T09:14:16;8.60;;;7.45;;
75837;SDS011;64480;52.040;113.502;2023-12-20T09:17:22;28.77;;;15.80;;
75837;SDS011;64480;52.040;113.502;2023-12-20T09:20:26;21.08;;;18.48;;
75837;SDS011;64480;52.040;113.502;2023-12-20T09:23:31;15.65;;;12.07;;
75837;SDS011;64480;52.040;113.502;2023-12-20T09:26:34;6.05;;;5.55;;
75837;SDS011;64480;52.040;113.502;2023-12-20T09:29:38;9.20;;;8.52;;
75837;SDS011;64480;52.040;113.502;2023-12-20T09:32:42;8.82;;;8.18;;
75837;SDS011;64480;52.040;113.502;2023-12-20T09:35:49;13.18;;;12.02;;
75837;SDS011;64480;52.040;113.502;2023-12-20T09:38:52;10.77;;;9.85;;
75837;SDS011;64480;52.040;113.502;2023-12-20T09:45:08;50.78;;;17.48;;
75837;SDS011;64480;52.040;113.502;2023-12-20T09:48:16;6.10;;;5.50;;
75837;SDS011;64480;52.040;113.502;2023-12-20T09:51:21;10.40;;;7.07;;
75837;SDS011;64480;52.040;113.502;2023-12-20T09:54:28;12.45;;;6.95;;
75837;SDS011;64480;52.040;113.502;2023-12-20T09:57:34;3.10;;;2.97;;
75837;SDS011;64480;52.040;113.502;2023-12-20T10:00:39;9.95;;;7.47;;
75837;SDS011;64480;52.040;113.502;2023-12-20T10:03:43;2.55;;;2.45;;
75837;SDS011;64480;52.040;113.502;2023-12-20T10:06:46;11.45;;;5.45;;
75837;SDS011;64480;52.040;113.502;2023-12-20T10:09:51;18.65;;;11.70;;
75837;SDS011;64480;52.040;113.502;2023-12-20T10:13:01;7.57;;;3.88;;
75837;SDS011;64480;52.040;113.502;2023-12-20T10:16:06;5.50;;;4.97;;
75837;SDS011;64480;52.040;113.502;2023-12-20T10:19:10;6.18;;;5.78;;
75837;SDS011;64480;52.040;113.502;2023-12-20T10:22:14;4.68;;;1.02;;
75837;SDS011;64480;52.040;113.502;2023-12-20T23:43:54;33.03;;;20.38;;
75837;SDS011;64480;52.040;113.502;2023-12-20T23:47:00;21.75;;;14.30;;
75837;SDS011;64480;52.040;113.502;2023-12-20T23:50:07;52.13;;;28.80;;
75837;SDS011;64480;52.040;113.502;2023-12-20T23:53:12;44.25;;;20.05;;
75837;SDS011;64480;52.040;113.502;2023-12-20T23:56:16;19.02;;;14.45;;
75837;SDS011;64480;52.040;113.502;2023-12-20T23:59:36;21.98;;;15.50;;
